sensor_id;sensor_type;location;lat;lon;timestamp;pressure;altitude;pressure_sealevel;temperature;humidity
79563;BME280;69026;50.980;11.314;2023-04-25T00:01:32;98174.69;;;18.72;50.78
79563;BME280;69026;50.980;11.314;2023-04-25T00:04:02;98173.06;;;18.71;50.56
79563;BME280;69026;50.980;11.314;2023-04-25T00:06:29;98181.31;;;18.71;50.67
79563;BME280;69026;50.980;11.314;2023-04-25T00:08:55;98174.19;;;18.70;50.45
79563;BME280;69026;50.980;11.314;2023-04-25T00:11:22;98182.41;;;18.70;50.68
79563;BME280;69026;50.980;11.314;2023-04-25T00:13:48;98178.06;;;18.69;50.80
79563;BME280;69026;50.980;11.314;2023-04-25T00:16:16;98177.25;;;18.68;50.59
79563;BME280;69026;50.980;11.314;2023-04-25T00:18:42;98181.94;;;18.68;50.88
79563;BME280;69026;50.980;11.314;2023-04-25T00:21:08;98182.72;;;18.68;50.57
79563;BME280;69026;50.980;11.314;2023-04-25T00:23:34;98183.53;;;18.69;50.71
79563;BME280;69026;50.980;11.314;2023-04-25T00:26:02;98182.41;;;18.70;50.54
79563;BME280;69026;50.980;11.314;2023-04-25T00:28:28;98184.34;;;18.69;50.65
79563;BME280;69026;50.980;11.314;2023-04-25T00:30:54;98180.78;;;18.69;50.61
79563;BME280;69026;50.980;11.314;2023-04-25T00:33:20;98183.53;;;18.69;50.79
79563;BME280;69026;50.980;11.314;2023-04-25T00:35:46;98183.53;;;18.69;50.72
79563;BME280;69026;50.980;11.314;2023-04-25T00:38:12;98183.53;;;18.69;50.53
79563;BME280;69026;50.980;11.314;2023-04-25T00:40:38;98181.94;;;18.68;50.51
79563;BME280;69026;50.980;11.314;2023-04-25T00:43:04;98184.66;;;18.68;50.75
79563;BME280;69026;50.980;11.314;2023-04-25T00:45:29;98181.94;;;18.68;50.73
79563;BME280;69026;50.980;11.314;2023-04-25T00:47:56;98183.84;;;18.67;50.60
79563;BME280;69026;50.980;11.314;2023-04-25T00:50:23;98184.16;;;18.65;50.51
79563;BME280;69026;50.980;11.314;2023-04-25T00:52:49;98178.66;;;18.65;50.69
79563;BME280;69026;50.980;11.314;2023-04-25T00:55:15;98177.00;;;18.64;50.59
79563;BME280;69026;50.980;11.314;2023-04-25T00:57:41;98186.91;;;18.65;50.74
79563;BME280;69026;50.980;11.314;2023-04-25T01:00:08;98173.44;;;18.64;50.45
79563;BME280;69026;50.980;11.314;2023-04-25T01:02:40;98181.69;;;18.64;50.73
79563;BME280;69026;50.980;11.314;2023-04-25T01:05:05;98178.94;;;18.64;50.63
79563;BME280;69026;50.980;11.314;2023-04-25T01:07:31;98181.69;;;18.64;50.77
79563;BME280;69026;50.980;11.314;2023-04-25T01:09:57;98178.94;;;18.64;50.69
79563;BME280;69026;50.980;11.314;2023-04-25T01:12:23;98177.00;;;18.64;50.70
79563;BME280;69026;50.980;11.314;2023-04-25T01:14:49;98181.69;;;18.64;50.53
79563;BME280;69026;50.980;11.314;2023-04-25T01:17:16;98169.88;;;18.63;50.77
79563;BME280;69026;50.980;11.314;2023-04-25T01:19:43;98171.50;;;18.64;50.86
79563;BME280;69026;50.980;11.314;2023-04-25T01:22:10;98171.81;;;18.63;50.56
79563;BME280;69026;50.980;11.314;2023-04-25T01:24:37;98167.75;;;18.60;50.72
79563;BME280;69026;50.980;11.314;2023-04-25T01:27:03;98174.56;;;18.63;50.57
79563;BME280;69026;50.980;11.314;2023-04-25T01:29:30;98178.41;;;18.62;50.74
79563;BME280;69026;50.980;11.314;2023-04-25T01:31:57;98181.47;;;18.60;50.54
79563;BME280;69026;50.980;11.314;2023-04-25T01:34:24;98183.09;;;18.61;50.87
79563;BME280;69026;50.980;11.314;2023-04-25T01:36:50;98170.25;;;18.57;50.82
79563;BME280;69026;50.980;11.314;2023-04-25T01:39:17;98180.63;;;18.60;50.58
79563;BME280;69026;50.980;11.314;2023-04-25T01:41:45;98185.31;;;18.59;50.53
79563;BME280;69026;50.980;11.314;2023-04-25T01:44:12;98185.31;;;18.59;50.61
79563;BME280;69026;50.980;11.314;2023-04-25T01:46:38;98182.56;;;18.59;50.85
79563;BME280;69026;50.980;11.314;2023-04-25T01:49:04;98185.31;;;18.59;50.60
79563;BME280;69026;50.980;11.314;2023-04-25T01:51:30;98183.69;;;18.58;50.75
79563;BME280;69026;50.980;11.314;2023-04-25T01:53:58;98187.25;;;18.59;50.73
79563;BME280;69026;50.980;11.314;2023-04-25T01:56:24;98184.50;;;18.59;50.90
79563;BME280;69026;50.980;11.314;2023-04-25T01:58:50;98186.44;;;18.58;50.72
79563;BME280;69026;50.980;11.314;2023-04-25T02:01:19;98184.50;;;18.59;50.73
79563;BME280;69026;50.980;11.314;2023-04-25T02:03:55;98186.44;;;18.58;50.90
79563;BME280;69026;50.980;11.314;2023-04-25T02:06:30;98188.34;;;18.58;50.70
79563;BME280;69026;50.980;11.314;2023-04-25T02:08:57;98189.19;;;18.58;50.79
79563;BME280;69026;50.980;11.314;2023-04-25T02:11:23;98177.38;;;18.58;50.68
79563;BME280;69026;50.980;11.314;2023-04-25T02:14:21;98184.78;;;18.57;50.72
79563;BME280;69026;50.980;11.314;2023-04-25T02:17:00;98184.78;;;18.57;50.88
79563;BME280;69026;50.980;11.314;2023-04-25T02:19:25;98193.34;;;18.56;50.87
79563;BME280;69026;50.980;11.314;2023-04-25T02:21:51;98189.75;;;18.55;50.68
79563;BME280;69026;50.980;11.314;2023-04-25T02:24:17;98196.91;;;18.56;50.63
79563;BME280;69026;50.980;11.314;2023-04-25T02:26:43;98197.19;;;18.55;50.60
79563;BME280;69026;50.980;11.314;2023-04-25T02:29:09;98189.75;;;18.55;50.65
79563;BME280;69026;50.980;11.314;2023-04-25T02:31:35;98188.13;;;18.54;50.61
79563;BME280;69026;50.980;11.314;2023-04-25T02:34:01;98188.94;;;18.55;50.71
79563;BME280;69026;50.980;11.314;2023-04-25T02:36:27;98189.28;;;18.53;51.09
79563;BME280;69026;50.980;11.314;2023-04-25T02:38:53;98198.31;;;18.54;50.60
79563;BME280;69026;50.980;11.314;2023-04-25T02:41:20;98184.88;;;18.52;50.88
79563;BME280;69026;50.980;11.314;2023-04-25T02:43:47;98192.00;;;18.53;50.96
79563;BME280;69026;50.980;11.314;2023-04-25T02:46:12;98186.53;;;18.53;50.71
79563;BME280;69026;50.980;11.314;2023-04-25T02:48:39;98183.78;;;18.53;50.56
79563;BME280;69026;50.980;11.314;2023-04-25T02:51:04;98186.53;;;18.53;50.80
79563;BME280;69026;50.980;11.314;2023-04-25T02:53:30;98181.03;;;18.53;50.79
79563;BME280;69026;50.980;11.314;2023-04-25T02:55:56;98186.53;;;18.53;50.56
79563;BME280;69026;50.980;11.314;2023-04-25T02:58:24;98175.53;;;18.53;50.55
79563;BME280;69026;50.980;11.314;2023-04-25T03:00:51;98180.19;;;18.53;50.91
79563;BME280;69026;50.980;11.314;2023-04-25T03:03:17;98176.63;;;18.52;50.83
79563;BME280;69026;50.980;11.314;2023-04-25T03:05:50;98173.34;;;18.50;50.77
79563;BME280;69026;50.980;11.314;2023-04-25T03:08:21;98179.38;;;18.52;50.76
79563;BME280;69026;50.980;11.314;2023-04-25T03:10:48;98177.75;;;18.51;50.92
79563;BME280;69026;50.980;11.314;2023-04-25T03:13:15;98178.84;;;18.50;50.80
79563;BME280;69026;50.980;11.314;2023-04-25T03:15:43;98178.84;;;18.50;50.69
79563;BME280;69026;50.980;11.314;2023-04-25T03:18:09;98180.78;;;18.50;50.81
79563;BME280;69026;50.980;11.314;2023-04-25T03:20:34;98175.28;;;18.50;50.81
79563;BME280;69026;50.980;11.314;2023-04-25T03:23:00;98174.50;;;18.49;50.46
79563;BME280;69026;50.980;11.314;2023-04-25T03:25:28;98170.94;;;18.49;50.64
79563;BME280;69026;50.980;11.314;2023-04-25T03:27:54;98172.84;;;18.48;50.59
79563;BME280;69026;50.980;11.314;2023-04-25T03:30:19;98170.09;;;18.48;50.66
79563;BME280;69026;50.980;11.314;2023-04-25T03:32:45;98178.31;;;18.48;50.85
79563;BME280;69026;50.980;11.314;2023-04-25T03:35:15;98183.81;;;18.48;50.94
79563;BME280;69026;50.980;11.314;2023-04-25T03:37:41;98172.03;;;18.48;50.65
79563;BME280;69026;50.980;11.314;2023-04-25T03:40:11;98177.22;;;18.49;50.79
79563;BME280;69026;50.980;11.314;2023-04-25T03:42:57;98176.41;;;18.49;50.76
79563;BME280;69026;50.980;11.314;2023-04-25T03:45:23;98181.91;;;18.49;50.56
79563;BME280;69026;50.980;11.314;2023-04-25T03:47:49;98186.56;;;18.48;50.49
79563;BME280;69026;50.980;11.314;2023-04-25T03:50:15;98176.41;;;18.49;50.60
79563;BME280;69026;50.980;11.314;2023-04-25T03:52:42;98173.97;;;18.47;50.64
79563;BME280;69026;50.980;11.314;2023-04-25T03:55:09;98170.41;;;18.47;50.81
79563;BME280;69026;50.980;11.314;2023-04-25T03:57:36;98181.38;;;18.47;50.65
79563;BME280;69026;50.980;11.314;2023-04-25T04:00:02;98181.38;;;18.47;50.78
79563;BME280;69026;50.980;11.314;2023-04-25T04:02:38;98178.94;;;18.45;50.78
79563;BME280;69026;50.980;11.314;2023-04-25T04:05:05;98178.94;;;18.45;50.62
79563;BME280;69026;50.980;11.314;2023-04-25T04:07:34;98184.41;;;18.45;50.59
79563;BME280;69026;50.980;11.314;2023-04-25T04:10:06;98174.56;;;18.44;50.97
79563;BME280;69026;50.980;11.314;2023-04-25T04:12:36;98181.16;;;18.43;50.86
79563;BME280;69026;50.980;11.314;2023-04-25T04:15:03;98186.97;;;18.41;50.94
79563;BME280;69026;50.980;11.314;2023-04-25T04:17:30;98193.78;;;18.44;50.91
79563;BME280;69026;50.980;11.314;2023-04-25T04:19:56;98193.78;;;18.44;50.69
79563;BME280;69026;50.980;11.314;2023-04-25T04:22:23;98194.88;;;18.43;50.90
79563;BME280;69026;50.980;11.314;2023-04-25T04:24:51;98197.63;;;18.43;50.81
79563;BME280;69026;50.980;11.314;2023-04-25T04:27:32;98184.41;;;18.45;50.76
79563;BME280;69026;50.980;11.314;2023-04-25T04:30:23;98189.91;;;18.45;50.52
79563;BME280;69026;50.980;11.314;2023-04-25T04:32:57;98183.91;;;18.43;50.59
79563;BME280;69026;50.980;11.314;2023-04-25T04:35:24;98195.41;;;18.45;50.73
79563;BME280;69026;50.980;11.314;2023-04-25T04:37:50;98188.28;;;18.44;50.55
79563;BME280;69026;50.980;11.314;2023-04-25T04:40:18;98196.53;;;18.44;50.87
79563;BME280;69026;50.980;11.314;2023-04-25T04:43:04;98193.78;;;18.44;50.56
79563;BME280;69026;50.980;11.314;2023-04-25T04:45:49;98186.63;;;18.43;50.83
79563;BME280;69026;50.980;11.314;2023-04-25T04:48:41;98186.13;;;18.41;50.82
79563;BME280;69026;50.980;11.314;2023-04-25T04:51:26;98190.50;;;18.42;50.56
79563;BME280;69026;50.980;11.314;2023-04-25T04:54:09;98191.59;;;18.41;50.79
79563;BME280;69026;50.980;11.314;2023-04-25T04:56:54;98188.84;;;18.41;50.69
79563;BME280;69026;50.980;11.314;2023-04-25T04:59:35;98188.84;;;18.41;50.68
79563;BME280;69026;50.980;11.314;2023-04-25T05:02:21;98186.97;;;18.41;50.42
79563;BME280;69026;50.980;11.314;2023-04-25T05:05:10;98199.28;;;18.44;50.78
79563;BME280;69026;50.980;11.314;2023-04-25T05:08:06;98204.78;;;18.44;50.85
79563;BME280;69026;50.980;11.314;2023-04-25T05:10:58;98197.09;;;18.41;50.60
79563;BME280;69026;50.980;11.314;2023-04-25T05:13:53;98206.63;;;18.49;50.80
79563;BME280;69026;50.980;11.314;2023-04-25T05:16:44;98215.38;;;18.51;50.70
79563;BME280;69026;50.980;11.314;2023-04-25T05:19:34;98218.34;;;18.54;50.53
79563;BME280;69026;50.980;11.314;2023-04-25T05:22:20;98213.38;;;18.56;50.33
79563;BME280;69026;50.980;11.314;2023-04-25T05:25:09;98206.47;;;18.59;50.47
79563;BME280;69026;50.980;11.314;2023-04-25T05:27:59;98209.44;;;18.62;50.41
79563;BME280;69026;50.980;11.314;2023-04-25T05:30:48;98212.44;;;18.66;50.33
79563;BME280;69026;50.980;11.314;2023-04-25T05:33:26;98216.50;;;18.69;50.29
79563;BME280;69026;50.980;11.314;2023-04-25T05:35:52;98214.56;;;18.69;50.20
79563;BME280;69026;50.980;11.314;2023-04-25T05:38:18;98219.78;;;18.71;50.29
79563;BME280;69026;50.980;11.314;2023-04-25T05:41:23;98229.09;;;18.75;50.05
79563;BME280;69026;50.980;11.314;2023-04-25T05:44:07;98232.94;;;18.74;50.19
79563;BME280;69026;50.980;11.314;2023-04-25T05:47:00;98239.53;;;18.73;50.35
79563;BME280;69026;50.980;11.314;2023-04-25T05:49:41;98242.81;;;18.75;50.40
79563;BME280;69026;50.980;11.314;2023-04-25T05:52:23;98238.94;;;18.76;50.52
79563;BME280;69026;50.980;11.314;2023-04-25T05:55:06;98245.56;;;18.75;50.48
79563;BME280;69026;50.980;11.314;2023-04-25T05:57:32;98241.69;;;18.76;50.24
79563;BME280;69026;50.980;11.314;2023-04-25T05:59:58;98246.09;;;18.77;50.37
79563;BME280;69026;50.980;11.314;2023-04-25T06:02:39;98237.56;;;18.78;50.38
79563;BME280;69026;50.980;11.314;2023-04-25T06:05:05;98250.22;;;18.79;50.55
79563;BME280;69026;50.980;11.314;2023-04-25T06:07:30;98254.84;;;18.79;50.34
79563;BME280;69026;50.980;11.314;2023-04-25T06:09:57;98257.31;;;18.80;50.63
79563;BME280;69026;50.980;11.314;2023-04-25T06:12:22;98255.91;;;18.83;49.72
79563;BME280;69026;50.980;11.314;2023-04-25T06:14:50;98257.56;;;18.84;49.68
79563;BME280;69026;50.980;11.314;2023-04-25T06:17:16;98257.84;;;18.82;50.36
79563;BME280;69026;50.980;11.314;2023-04-25T06:19:42;98257.31;;;18.80;50.47
79563;BME280;69026;50.980;11.314;2023-04-25T06:22:08;98264.22;;;18.78;50.44
79563;BME280;69026;50.980;11.314;2023-04-25T06:24:37;98266.41;;;18.76;50.68
79563;BME280;69026;50.980;11.314;2023-04-25T06:27:03;98268.66;;;18.74;50.66
79563;BME280;69026;50.980;11.314;2023-04-25T06:29:29;98272.53;;;18.73;50.69
79563;BME280;69026;50.980;11.314;2023-04-25T06:31:55;98267.03;;;18.73;50.67
79563;BME280;69026;50.980;11.314;2023-04-25T06:34:21;98271.72;;;18.72;50.80
79563;BME280;69026;50.980;11.314;2023-04-25T06:36:47;98276.34;;;18.72;50.81
79563;BME280;69026;50.980;11.314;2023-04-25T06:39:15;98274.75;;;18.71;50.99
79563;BME280;69026;50.980;11.314;2023-04-25T06:41:40;98273.09;;;18.70;50.78
79563;BME280;69026;50.980;11.314;2023-04-25T06:44:14;98275.53;;;18.71;51.21
79563;BME280;69026;50.980;11.314;2023-04-25T06:46:49;98280.22;;;18.71;51.47
79563;BME280;69026;50.980;11.314;2023-04-25T06:49:14;98275.53;;;18.71;51.34
79563;BME280;69026;50.980;11.314;2023-04-25T06:51:41;98281.28;;;18.75;51.56
79563;BME280;69026;50.980;11.314;2023-04-25T06:54:06;98281.28;;;18.75;51.17
79563;BME280;69026;50.980;11.314;2023-04-25T06:56:40;98277.41;;;18.76;51.32
79563;BME280;69026;50.980;11.314;2023-04-25T06:59:13;98280.72;;;18.78;51.15
79563;BME280;69026;50.980;11.314;2023-04-25T07:01:40;98281.00;;;18.76;51.20
79563;BME280;69026;50.980;11.314;2023-04-25T07:04:18;98284.00;;;18.80;49.75
79563;BME280;69026;50.980;11.314;2023-04-25T07:06:50;98295.00;;;18.80;50.77
79563;BME280;69026;50.980;11.314;2023-04-25T07:09:21;98292.53;;;18.78;50.92
79563;BME280;69026;50.980;11.314;2023-04-25T07:11:48;98298.81;;;18.79;51.04
79563;BME280;69026;50.980;11.314;2023-04-25T07:14:14;98294.47;;;18.78;50.98
79563;BME280;69026;50.980;11.314;2023-04-25T07:16:40;98301.06;;;18.77;50.94
79563;BME280;69026;50.980;11.314;2023-04-25T07:19:07;98297.78;;;18.75;51.20
79563;BME280;69026;50.980;11.314;2023-04-25T07:21:33;98294.50;;;18.73;51.32
79563;BME280;69026;50.980;11.314;2023-04-25T07:24:02;98296.13;;;18.74;51.32
79563;BME280;69026;50.980;11.314;2023-04-25T07:26:32;98300.00;;;18.73;51.04
79563;BME280;69026;50.980;11.314;2023-04-25T07:29:17;98300.00;;;18.73;51.21
79563;BME280;69026;50.980;11.314;2023-04-25T07:31:43;98304.38;;;18.74;51.07
79563;BME280;69026;50.980;11.314;2023-04-25T07:34:08;98301.06;;;18.77;51.17
79563;BME280;69026;50.980;11.314;2023-04-25T07:36:37;98302.63;;;18.83;50.79
79563;BME280;69026;50.980;11.314;2023-04-25T07:39:03;98310.28;;;18.86;50.15
79563;BME280;69026;50.980;11.314;2023-04-25T07:41:29;98312.97;;;18.91;50.05
79563;BME280;69026;50.980;11.314;2023-04-25T07:43:55;98316.22;;;18.93;50.17
79563;BME280;69026;50.980;11.314;2023-04-25T07:46:21;98321.72;;;18.93;50.17
79563;BME280;69026;50.980;11.314;2023-04-25T07:48:47;98314.59;;;18.92;50.18
79563;BME280;69026;50.980;11.314;2023-04-25T07:51:13;98316.22;;;18.93;50.47
79563;BME280;69026;50.980;11.314;2023-04-25T07:53:39;98322.31;;;18.90;50.40
79563;BME280;69026;50.980;11.314;2023-04-25T07:56:10;98323.97;;;18.91;50.34
79563;BME280;69026;50.980;11.314;2023-04-25T07:58:39;98331.69;;;18.89;50.08
79563;BME280;69026;50.980;11.314;2023-04-25T08:01:07;98336.34;;;18.89;50.42
79563;BME280;69026;50.980;11.314;2023-04-25T08:03:43;98341.03;;;18.88;50.10
79563;BME280;69026;50.980;11.314;2023-04-25T08:06:21;98339.41;;;18.87;50.12
79563;BME280;69026;50.980;11.314;2023-04-25T08:08:58;98337.75;;;18.86;50.15
79563;BME280;69026;50.980;11.314;2023-04-25T08:11:32;98340.00;;;18.84;50.09
79563;BME280;69026;50.980;11.314;2023-04-25T08:13:58;98341.63;;;18.85;49.92
79563;BME280;69026;50.980;11.314;2023-04-25T08:16:24;98349.59;;;18.87;49.95
79563;BME280;69026;50.980;11.314;2023-04-25T08:18:51;98347.34;;;18.89;49.66
79563;BME280;69026;50.980;11.314;2023-04-25T08:21:16;98349.00;;;18.90;49.73
79563;BME280;69026;50.980;11.314;2023-04-25T08:23:43;98360.81;;;18.90;49.51
79563;BME280;69026;50.980;11.314;2023-04-25T08:26:19;98360.72;;;18.95;49.42
79563;BME280;69026;50.980;11.314;2023-04-25T08:28:48;98359.63;;;18.96;49.48
79563;BME280;69026;50.980;11.314;2023-04-25T08:31:14;98359.72;;;18.91;49.24
79563;BME280;69026;50.980;11.314;2023-04-25T08:33:52;98372.31;;;18.92;49.82
79563;BME280;69026;50.980;11.314;2023-04-25T08:36:26;98379.28;;;18.84;50.42
79563;BME280;69026;50.980;11.314;2023-04-25T08:38:53;98380.97;;;18.80;50.30
79563;BME280;69026;50.980;11.314;2023-04-25T08:41:20;98380.47;;;18.78;50.50
79563;BME280;69026;50.980;11.314;2023-04-25T08:43:48;98381.03;;;18.75;49.86
79563;BME280;69026;50.980;11.314;2023-04-25T08:46:17;98377.47;;;18.75;50.39
79563;BME280;69026;50.980;11.314;2023-04-25T08:49:02;98384.84;;;18.74;50.31
79563;BME280;69026;50.980;11.314;2023-04-25T08:51:31;98387.31;;;18.76;50.22
79563;BME280;69026;50.980;11.314;2023-04-25T08:54:08;98388.97;;;18.77;50.38
79563;BME280;69026;50.980;11.314;2023-04-25T08:56:35;98399.69;;;18.78;50.16
79563;BME280;69026;50.980;11.314;2023-04-25T08:59:02;98397.75;;;18.79;50.47
79563;BME280;69026;50.980;11.314;2023-04-25T09:01:28;98404.91;;;18.80;50.64
79563;BME280;69026;50.980;11.314;2023-04-25T09:03:57;98412.56;;;18.83;50.54
79563;BME280;69026;50.980;11.314;2023-04-25T09:06:23;98417.78;;;18.84;49.92
79563;BME280;69026;50.980;11.314;2023-04-25T09:08:50;98421.06;;;18.87;49.81
79563;BME280;69026;50.980;11.314;2023-04-25T09:11:16;98428.44;;;18.86;49.71
79563;BME280;69026;50.980;11.314;2023-04-25T09:13:43;98424.91;;;18.85;50.04
79563;BME280;69026;50.980;11.314;2023-04-25T09:16:22;98429.56;;;18.85;49.80
79563;BME280;69026;50.980;11.314;2023-04-25T09:19:24;98430.69;;;18.84;49.84
79563;BME280;69026;50.980;11.314;2023-04-25T09:21:54;98427.69;;;18.80;49.88
79563;BME280;69026;50.980;11.314;2023-04-25T09:24:35;98443.59;;;18.83;50.26
79563;BME280;69026;50.980;11.314;2023-04-25T09:27:10;98432.84;;;18.87;50.44
79563;BME280;69026;50.980;11.314;2023-04-25T09:29:39;98441.09;;;18.87;50.49
79563;BME280;69026;50.980;11.314;2023-04-25T09:32:19;98452.91;;;18.88;50.45
79563;BME280;69026;50.980;11.314;2023-04-25T09:34:51;98459.53;;;18.87;50.15
79563;BME280;69026;50.980;11.314;2023-04-25T09:37:24;98458.69;;;18.86;49.76
79563;BME280;69026;50.980;11.314;2023-04-25T09:40:23;98468.88;;;18.85;49.87
79563;BME280;69026;50.980;11.314;2023-04-25T09:42:56;98474.38;;;18.85;49.88
79563;BME280;69026;50.980;11.314;2023-04-25T09:45:25;98473.56;;;18.85;50.12
79563;BME280;69026;50.980;11.314;2023-04-25T09:47:55;98473.56;;;18.85;49.81
79563;BME280;69026;50.980;11.314;2023-04-25T09:50:26;98479.03;;;18.85;49.78
79563;BME280;69026;50.980;11.314;2023-04-25T09:53:05;98485.06;;;18.87;49.40
79563;BME280;69026;50.980;11.314;2023-04-25T09:55:47;98486.41;;;18.90;49.62
79563;BME280;69026;50.980;11.314;2023-04-25T09:58:13;98481.16;;;18.93;49.28
79563;BME280;69026;50.980;11.314;2023-04-25T10:00:40;98484.19;;;18.92;49.56
79563;BME280;69026;50.980;11.314;2023-04-25T10:03:20;98486.63;;;18.93;49.02
79563;BME280;69026;50.980;11.314;2023-04-25T10:06:04;98488.31;;;18.94;48.64
79563;BME280;69026;50.980;11.314;2023-04-25T10:08:36;98491.56;;;18.96;48.78
79563;BME280;69026;50.980;11.314;2023-04-25T10:11:05;98494.84;;;18.98;49.15
79563;BME280;69026;50.980;11.314;2023-04-25T10:13:32;98489.94;;;18.95;49.00
79563;BME280;69026;50.980;11.314;2023-04-25T10:15:59;98486.41;;;18.90;49.26
79563;BME280;69026;50.980;11.314;2023-04-25T10:18:27;98485.06;;;18.87;48.68
79563;BME280;69026;50.980;11.314;2023-04-25T10:21:02;98481.72;;;18.90;48.58
79563;BME280;69026;50.980;11.314;2023-04-25T10:23:30;98492.63;;;19.00;48.42
79563;BME280;69026;50.980;11.314;2023-04-25T10:25:56;98490.41;;;19.02;48.12
79563;BME280;69026;50.980;11.314;2023-04-25T10:28:23;98485.25;;;18.96;48.66
79563;BME280;69026;50.980;11.314;2023-04-25T10:31:08;98489.38;;;18.98;47.65
79563;BME280;69026;50.980;11.314;2023-04-25T10:33:38;98488.84;;;18.96;47.85
79563;BME280;69026;50.980;11.314;2023-04-25T10:36:17;98486.09;;;18.96;47.87
79563;BME280;69026;50.980;11.314;2023-04-25T10:38:44;98496.53;;;18.94;48.21
79563;BME280;69026;50.980;11.314;2023-04-25T10:41:12;98489.38;;;18.93;47.87
79563;BME280;69026;50.980;11.314;2023-04-25T10:43:41;98501.78;;;18.91;47.84
79563;BME280;69026;50.980;11.314;2023-04-25T10:46:23;98504.31;;;18.87;48.34
79563;BME280;69026;50.980;11.314;2023-04-25T10:48:54;98507.94;;;18.82;48.19
79563;BME280;69026;50.980;11.314;2023-04-25T10:51:25;98507.13;;;18.82;48.40
79563;BME280;69026;50.980;11.314;2023-04-25T10:56:31;98503.72;;;18.90;48.08
79563;BME280;69026;50.980;11.314;2023-04-25T10:59:17;98514.97;;;18.94;47.34
79563;BME280;69026;50.980;11.314;2023-04-25T11:01:51;98497.63;;;18.93;47.64
79563;BME280;69026;50.980;11.314;2023-04-25T11:04:20;98520.69;;;18.97;47.67
79563;BME280;69026;50.980;11.314;2023-04-25T11:06:58;98516.31;;;18.96;47.69
79563;BME280;69026;50.980;11.314;2023-04-25T11:09:26;98519.06;;;18.96;47.74
79563;BME280;69026;50.980;11.314;2023-04-25T11:11:54;98527.88;;;18.93;48.54
79563;BME280;69026;50.980;11.314;2023-04-25T11:14:21;98519.06;;;18.96;47.09
79563;BME280;69026;50.980;11.314;2023-04-25T11:16:47;98523.38;;;19.02;47.12
79563;BME280;69026;50.980;11.314;2023-04-25T11:19:19;98525.84;;;19.04;47.47
79563;BME280;69026;50.980;11.314;2023-04-25T11:21:45;98522.50;;;19.07;47.13
79563;BME280;69026;50.980;11.314;2023-04-25T11:24:11;98521.69;;;19.06;47.15
79563;BME280;69026;50.980;11.314;2023-04-25T11:26:37;98519.75;;;19.07;47.22
79563;BME280;69026;50.980;11.314;2023-04-25T11:29:03;98520.00;;;19.11;47.17
79563;BME280;69026;50.980;11.314;2023-04-25T11:31:29;98521.63;;;19.12;47.32
79563;BME280;69026;50.980;11.314;2023-04-25T11:33:58;98517.97;;;19.21;47.13
79563;BME280;69026;50.980;11.314;2023-04-25T11:36:24;98517.09;;;19.26;47.31
79563;BME280;69026;50.980;11.314;2023-04-25T11:38:52;98520.09;;;19.30;46.99
79563;BME280;69026;50.980;11.314;2023-04-25T11:41:19;98523.28;;;19.37;46.92
79563;BME280;69026;50.980;11.314;2023-04-25T11:43:45;98516.06;;;19.65;45.51
79563;BME280;69026;50.980;11.314;2023-04-25T11:46:11;98510.59;;;19.60;38.77
79563;BME280;69026;50.980;11.314;2023-04-25T11:48:41;98509.97;;;18.96;35.05
79563;BME280;69026;50.980;11.314;2023-04-25T11:51:08;98516.78;;;18.40;34.99
79563;BME280;69026;50.980;11.314;2023-04-25T11:53:34;98504.78;;;17.91;34.65
79563;BME280;69026;50.980;11.314;2023-04-25T11:56:01;98513.88;;;17.76;36.39
79563;BME280;69026;50.980;11.314;2023-04-25T11:58:27;98510.56;;;17.79;37.48
79563;BME280;69026;50.980;11.314;2023-04-25T12:00:53;98508.09;;;17.88;37.91
79563;BME280;69026;50.980;11.314;2023-04-25T12:03:19;98507.78;;;17.95;38.15
79563;BME280;69026;50.980;11.314;2023-04-25T12:05:46;98510.22;;;18.01;38.14
79563;BME280;69026;50.980;11.314;2023-04-25T12:08:15;98507.75;;;18.00;38.37
79563;BME280;69026;50.980;11.314;2023-04-25T12:10:43;98512.19;;;17.91;37.84
79563;BME280;69026;50.980;11.314;2023-04-25T12:13:21;98512.22;;;17.86;37.95
79563;BME280;69026;50.980;11.314;2023-04-25T12:15:47;98513.84;;;17.92;38.61
79563;BME280;69026;50.980;11.314;2023-04-25T12:18:13;98513.53;;;17.93;38.62
79563;BME280;69026;50.980;11.314;2023-04-25T12:20:39;98516.59;;;17.92;38.71
79563;BME280;69026;50.980;11.314;2023-04-25T12:23:08;98525.97;;;17.80;38.08
79563;BME280;69026;50.980;11.314;2023-04-25T12:25:38;98524.34;;;17.69;38.03
79563;BME280;69026;50.980;11.314;2023-04-25T12:30:54;98526.34;;;17.53;38.17
79563;BME280;69026;50.980;11.314;2023-04-25T12:33:21;98527.72;;;17.51;38.28
79563;BME280;69026;50.980;11.314;2023-04-25T12:35:47;98524.44;;;17.54;38.23
79563;BME280;69026;50.980;11.314;2023-04-25T12:38:26;98525.25;;;17.54;37.77
79563;BME280;69026;50.980;11.314;2023-04-25T12:40:53;98527.19;;;17.49;37.14
79563;BME280;69026;50.980;11.314;2023-04-25T12:43:19;98529.66;;;17.45;37.25
79563;BME280;69026;50.980;11.314;2023-04-25T12:45:53;98537.09;;;17.40;36.40
79563;BME280;69026;50.980;11.314;2023-04-25T12:48:20;98534.13;;;17.31;36.33
79563;BME280;69026;50.980;11.314;2023-04-25T12:50:46;98528.91;;;17.24;36.10
79563;BME280;69026;50.980;11.314;2023-04-25T12:53:20;98539.63;;;17.21;36.62
79563;BME280;69026;50.980;11.314;2023-04-25T12:55:46;98544.00;;;17.27;41.71
79563;BME280;69026;50.980;11.314;2023-04-25T12:58:16;98542.88;;;17.38;46.33
79563;BME280;69026;50.980;11.314;2023-04-25T13:00:44;98538.16;;;17.54;47.27
79563;BME280;69026;50.980;11.314;2023-04-25T13:03:10;98549.88;;;17.65;45.96
79563;BME280;69026;50.980;11.314;2023-04-25T13:05:37;98555.03;;;17.76;45.24
79563;BME280;69026;50.980;11.314;2023-04-25T13:08:03;98550.34;;;17.92;45.23
79563;BME280;69026;50.980;11.314;2023-04-25T13:10:29;98547.50;;;18.08;45.10
79563;BME280;69026;50.980;11.314;2023-04-25T13:12:55;98547.13;;;18.19;44.88